CST,Max TemperatureF,Mean TemperatureF,Min TemperatureF,Max Dew PointF,MeanDew PointF,Min DewpointF,Max Humidity, Mean Humidity, Min Humidity, Max Sea Level PressureIn, Mean Sea Level PressureIn, Min Sea Level PressureIn, Max VisibilityMiles, Mean VisibilityMiles, Min VisibilityMiles, Max Wind SpeedMPH, Mean Wind SpeedMPH, Max Gust SpeedMPH,PrecipitationIn, CloudCover, Events, WindDirDegrees
2012-1-1,30,22,13,22,14,5,75,71,67,30.49,30.23,29.94,10,8,1,33,22,41,T,6,Snow,315
2012-1-2,15,8,0,7,2,-4,87,79,70,30.69,30.56,30.30,10,10,6,18,9,24,T,4,Snow,293
2012-1-3,41,24,6,30,17,2,88,77,66,30.25,29.89,29.65,10,10,10,29,15,33,0.00,3,,219
2012-1-4,38,26,13,29,20,12,100,85,70,30.05,29.96,29.85,10,9,0,13,6,15,0.00,2,Fog,227
2012-1-5,47,31,14,33,28,15,92,76,60,29.87,29.61,29.47,10,9,1,26,13,32,0.00,4,,235
2012-1-6,39,32,25,32,27,21,92,76,59,29.99,29.77,29.52,10,9,1,29,17,37,0.01,5,Rain-Snow,317
2012-1-7,38,31,23,28,24,21,92,81,70,30.18,30.07,29.94,10,10,10,16,7,20,0.00,4,,254
2012-1-8,38,28,17,28,23,16,92,76,59,30.18,30.05,29.76,10,10,10,23,9,29,0.00,6,,202
2012-1-9,46,37,27,32,28,24,92,75,58,29.92,29.84,29.73,10,10,10,23,10,28,0.00,0,,262
2012-1-10,44,37,29,35,31,27,92,81,70,29.78,29.70,29.62,10,10,9,22,9,28,0.03,6,Rain-Snow,248
2012-1-11,35,20,5,29,6,-1,85,72,59,30.14,30.03,29.73,10,8,2,31,20,39,0.01,7,Snow,339
2012-1-12,6,0,-6,1,-3,-10,86,77,68,30.20,30.14,30.08,10,6,1,28,16,33,0.01,5,Snow,341
2012-1-13,14,2,-10,10,-2,-13,92,79,66,30.14,30.03,29.87,10,9,3,14,7,17,0.02,4,Snow,171
2012-1-14,32,23,14,25,18,10,92,82,72,30.00,29.93,29.84,10,8,2,16,6,18,0.03,7,Snow,145
2012-1-15,33,24,14,24,19,7,100,83,66,29.94,29.76,29.56,10,9,1,26,14,33,0.00,4,,179
2012-1-16,14,6,-2,7,0,-8,80,75,69,30.34,30.09,29.84,10,10,3,25,15,31,T,7,Snow,338
2012-1-17,1,-4,-10,-9,-12,-15,83,70,57,30.43,30.35,30.23,10,10,10,14,7,18,0.00,3,,347
2012-1-18,0,-8,-16,-7,-12,-23,79,72,65,30.18,29.99,29.85,10,6,0,28,13,32,0.02,6,Snow,14
2012-1-19,0,-8,-17,-14,-19,-24,79,65,51,30.19,30.13,30.02,10,10,10,20,10,23,0.00,0,,247
2012-1-20,8,-2,-12,-5,-11,-15,79,67,55,30.29,30.21,30.10,10,10,10,12,5,14,0.00,3,,270
2012-1-21,19,4,-11,14,4,-14,83,75,67,30.24,29.83,29.57,10,9,2,33,16,40,T,6,Snow,163
2012-1-22,27,23,19,25,22,14,100,89,77,29.69,29.59,29.50,10,3,1,20,8,25,0.04,8,Snow,135
2012-1-23,23,13,3,21,13,0,100,87,74,30.01,29.83,29.65,10,7,2,24,13,29,T,7,Rain-Snow,333
2012-1-24,22,9,-4,17,7,-6,95,86,77,30.18,30.12,30.04,10,10,10,18,8,24,0.00,3,,175
2012-1-25,31,20,9,28,21,7,100,92,83,30.12,29.85,29.55,10,7,1,29,17,36,T,5,,177
2012-1-26,38,26,14,25,20,14,92,70,48,29.78,29.71,29.56,10,10,10,23,10,29,0.00,1,,274
2012-1-27,28,24,19,25,19,12,96,80,63,29.92,29.74,29.59,10,6,0,24,14,30,0.17,6,Fog-Snow,351
2012-1-28,23,15,6,15,11,0,88,78,67,30.15,29.99,29.89,10,10,7,20,12,23,T,6,Snow,308
2012-1-29,18,3,-12,14,2,-12,92,81,70,30.24,30.05,29.77,10,8,2,22,11,28,0.02,5,Snow,176
2012-1-30,32,25,18,29,21,14,92,85,77,29.73,29.59,29.48,10,10,8,21,9,25,0.01,8,Rain,141
2012-1-31,32,25,17,29,25,15,92,85,78,29.95,29.74,29.53,10,7,4,20,9,24,0.01,7,Rain,304